Time;durP1;ratioP1;P1;durP2;ratioP2;P2;SDS_P1;SDS_P2;PMS_P1;PMS_P2;Temp;Humidity;BMP_temperature;BMP_pressure;BME280_temperature;BME280_humidity;BME280_pressure;Samples;Min_cycle;Max_cycle;Signal;HPM_P1;HPM_P2
2022/01/02 00:00:06;;;;;;;;;;;11.20;99.90;;;;;;5130134;27;19928;-57
2022/01/02 00:02:32;;;;;;;;;;;11.20;99.90;;;;;;5145658;27;20858;-56
2022/01/02 00:05:06;;;;;;;;;;;11.20;99.90;;;;;;5139606;27;19928;-56
2022/01/02 00:07:34;;;;;;;;;;;11.20;99.90;;;;;;5133549;27;20010;-56
2022/01/02 00:10:02;;;;;;;;;;;11.20;99.90;;;;;;5145819;27;19934;-57
2022/01/02 00:12:29;;;;;;;;;;;11.20;99.90;;;;;;5145302;27;19978;-56
2022/01/02 00:14:55;;;;;;;;;;;11.20;99.90;;;;;;5137177;27;20241;-57
2022/01/02 00:17:23;;;;;;;;;;;11.10;99.90;;;;;;5139172;27;20011;-56
2022/01/02 00:19:53;;;;;;;;;;;11.20;99.90;;;;;;5145368;27;19927;-56
2022/01/02 00:22:35;;;;;;;;;;;11.10;99.90;;;;;;5133713;27;19931;-56
2022/01/02 00:25:04;;;;;;;;;;;11.10;99.90;;;;;;5147568;27;19933;-57
2022/01/02 00:27:31;;;;;;;;;;;11.10;99.90;;;;;;5136728;27;19928;-57
2022/01/02 00:29:57;;;;;;;;;;;11.20;99.90;;;;;;5146472;27;19927;-56
2022/01/02 00:32:23;;;;;;;;;;;11.10;99.90;;;;;;5133983;27;19955;-56
2022/01/02 00:34:49;;;;;;;;;;;11.10;99.90;;;;;;5143647;27;20301;-57
2022/01/02 00:37:15;;;;;;;;;;;11.10;99.90;;;;;;5140968;27;19926;-56
2022/01/02 00:39:42;;;;;;;;;;;11.10;99.90;;;;;;5135899;27;19927;-57
2022/01/02 00:42:14;;;;;;;;;;;11.10;99.90;;;;;;5129186;27;20296;-56
2022/01/02 00:44:58;;;;;;;;;;;11.10;99.90;;;;;;5135569;27;20300;-56
2022/01/02 00:47:36;;;;;;;;;;;11.10;99.90;;;;;;5138468;27;19937;-56
2022/01/02 00:50:09;;;;;;;;;;;11.10;99.90;;;;;;5147006;27;19982;-56
2022/01/02 00:52:40;;;;;;;;;;;11.10;99.90;;;;;;5134568;27;20399;-59
2022/01/02 00:55:07;;;;;;;;;;;11.10;99.90;;;;;;5141491;27;19934;-56
2022/01/02 00:57:36;;;;;;;;;;;11.10;99.90;;;;;;5142931;27;20304;-56
2022/01/02 01:00:09;;;;;;;;;;;11.10;99.90;;;;;;5132942;27;19927;-56
2022/01/02 01:02:39;;;;;;;;;;;11.10;99.90;;;;;;5147614;27;19934;-56
2022/01/02 01:05:06;;;;;;;;;;;11.10;99.90;;;;;;5139647;27;19927;-56
2022/01/02 01:07:32;;;;;;;;;;;11.10;99.90;;;;;;5135637;27;19978;-57
2022/01/02 01:09:58;;;;;;;;;;;11.10;99.90;;;;;;5146426;27;19927;-57
2022/01/02 01:12:24;;;;;;;;;;;11.10;99.90;;;;;;5133054;27;20392;-60
2022/01/02 01:14:50;;;;;;;;;;;11.10;99.90;;;;;;5124412;27;19923;-60
2022/01/02 01:17:16;;;;;;;;;;;11.10;99.90;;;;;;5140100;27;19928;-62
2022/01/02 01:19:42;;;;;;;;;;;11.10;99.90;;;;;;5127605;27;20366;-63
2022/01/02 01:22:08;;;;;;;;;;;11.30;99.90;;;;;;5146479;27;19934;-56
2022/01/02 01:24:35;;;;;;;;;;;11.10;99.90;;;;;;5134147;27;19931;-61
2022/01/02 01:27:04;;;;;;;;;;;11.10;99.90;;;;;;5141417;27;19935;-60
2022/01/02 01:29:34;;;;;;;;;;;11.10;99.90;;;;;;5141452;27;19970;-64
2022/01/02 01:32:03;;;;;;;;;;;11.40;99.90;;;;;;5132285;27;19927;-61
2022/01/02 01:34:29;;;;;;;;;;;11.10;99.90;;;;;;5132430;27;19927;-64
2022/01/02 01:36:55;;;;;;;;;;;11.10;99.90;;;;;;5142043;27;19927;-66
2022/01/02 01:39:20;;;;;;;;;;;11.10;99.90;;;;;;5140081;27;20049;-65
2022/01/02 01:41:47;;;;;;;;;;;11.20;99.90;;;;;;5148289;27;19927;-59
2022/01/02 01:46:39;;;;;;;;;;;11.20;99.90;;;;;;5142652;27;19927;-63
2022/01/02 01:49:21;;;;;;;;;;;11.20;99.90;;;;;;5137204;27;20241;-65
2022/01/02 01:51:47;;;;;;;;;;;11.10;99.90;;;;;;5132735;27;20385;-64
2022/01/02 01:54:13;;;;;;;;;;;11.10;99.90;;;;;;5143328;27;19934;-59
2022/01/02 01:56:39;;;;;;;;;;;11.10;99.90;;;;;;5134371;27;19934;-60
2022/01/02 01:59:05;;;;;;;;;;;11.10;99.90;;;;;;5140116;27;20372;-59
2022/01/02 02:01:31;;;;;;;;;;;11.10;99.90;;;;;;5141433;27;20288;-59
2022/01/02 02:03:56;;;;;;;;;;;11.10;99.90;;;;;;5146397;27;20434;-57
2022/01/02 02:06:22;;;;;;;;;;;11.10;99.90;;;;;;5127575;27;19934;-57
2022/01/02 02:08:50;;;;;;;;;;;11.10;99.90;;;;;;5139071;27;19990;-60
2022/01/02 02:11:16;;;;;;;;;;;11.20;99.90;;;;;;5109963;28;19927;-56
2022/01/02 02:13:42;;;;;;;;;;;11.10;99.90;;;;;;5142683;27;19927;-56
2022/01/02 02:16:07;;;;;;;;;;;11.10;99.90;;;;;;5132621;27;19927;-56
2022/01/02 02:18:34;;;;;;;;;;;11.10;99.90;;;;;;5142825;27;19928;-56
2022/01/02 02:21:00;;;;;;;;;;;11.10;99.90;;;;;;5128052;27;19931;-55
2022/01/02 02:23:26;;;;;;;;;;;11.10;99.90;;;;;;5140578;27;19927;-56
2022/01/02 02:25:52;;;;;;;;;;;11.10;99.90;;;;;;5145952;27;19963;-56
2022/01/02 02:28:17;;;;;;;;;;;11.10;99.90;;;;;;5130334;27;20327;-56
2022/01/02 02:30:45;;;;;;;;;;;11.10;99.90;;;;;;5142447;27;20385;-56
2022/01/02 02:33:11;;;;;;;;;;;11.10;99.90;;;;;;5138547;27;20015;-56
2022/01/02 02:35:38;;;;;;;;;;;11.10;99.90;;;;;;5135166;27;20437;-56
2022/01/02 02:38:07;;;;;;;;;;;11.10;99.90;;;;;;5145281;27;20448;-56
2022/01/02 02:40:33;;;;;;;;;;;11.00;99.90;;;;;;5127800;27;19928;-56
2022/01/02 02:44:07;;;;;;;;;;;11.00;99.90;;;;;;5128065;27;19927;-57
2022/01/02 02:51:29;;;;;;;;;;;11.00;99.90;;;;;;5136585;27;20392;-56
2022/01/02 02:53:55;;;;;;;;;;;11.00;99.90;;;;;;5145203;27;19927;-56
2022/01/02 02:56:27;;;;;;;;;;;11.00;99.90;;;;;;5128640;27;20278;-56
2022/01/02 02:58:57;;;;;;;;;;;11.20;99.90;;;;;;5135499;27;20031;-57
2022/01/02 03:01:23;;;;;;;;;;;11.00;99.90;;;;;;5136533;27;20019;-56
2022/01/02 03:03:49;;;;;;;;;;;11.00;99.90;;;;;;5131190;27;19932;-57
2022/01/02 03:06:15;;;;;;;;;;;11.00;99.90;;;;;;5148513;27;19934;-55
2022/01/02 03:08:41;;;;;;;;;;;11.00;99.90;;;;;;5133903;27;19927;-55
2022/01/02 03:11:10;;;;;;;;;;;11.00;99.90;;;;;;5130780;27;19935;-56
2022/01/02 03:13:36;;;;;;;;;;;11.00;99.90;;;;;;5130140;27;19934;-57
2022/01/02 03:16:02;;;;;;;;;;;11.00;99.90;;;;;;5148236;27;19927;-58
2022/01/02 03:18:27;;;;;;;;;;;11.00;99.90;;;;;;5135598;27;19997;-59
2022/01/02 03:20:53;;;;;;;;;;;11.00;99.90;;;;;;5144752;27;20292;-56
2022/01/02 03:23:18;;;;;;;;;;;11.00;99.90;;;;;;5142747;27;20288;-56
2022/01/02 03:25:44;;;;;;;;;;;11.00;99.90;;;;;;5149019;27;19938;-59
2022/01/02 03:28:10;;;;;;;;;;;11.00;99.90;;;;;;5134692;27;19928;-56
2022/01/02 03:30:35;;;;;;;;;;;11.00;99.90;;;;;;5146275;27;19927;-56
2022/01/02 03:33:01;;;;;;;;;;;11.00;99.90;;;;;;5140241;27;20034;-56
2022/01/02 03:35:27;;;;;;;;;;;11.00;99.90;;;;;;5139863;27;19974;-56
2022/01/02 03:37:53;;;;;;;;;;;11.00;99.90;;;;;;5147361;27;19930;-56
2022/01/02 03:40:19;;;;;;;;;;;11.00;99.90;;;;;;5133586;27;19927;-56
2022/01/02 03:42:45;;;;;;;;;;;11.00;99.90;;;;;;5131079;27;20337;-56
2022/01/02 03:45:11;;;;;;;;;;;11.00;99.90;;;;;;5141240;27;19927;-56
2022/01/02 03:47:36;;;;;;;;;;;10.90;99.90;;;;;;5137676;27;19950;-57
2022/01/02 03:50:03;;;;;;;;;;;11.00;99.90;;;;;;5148011;27;19927;-56
2022/01/02 03:52:28;;;;;;;;;;;11.00;99.90;;;;;;5135069;27;19976;-56
2022/01/02 03:54:54;;;;;;;;;;;11.00;99.90;;;;;;5143998;27;19982;-57
2022/01/02 03:57:19;;;;;;;;;;;11.00;99.90;;;;;;5140904;27;19967;-56
2022/01/02 03:59:45;;;;;;;;;;;11.00;99.90;;;;;;5136626;27;20373;-59
2022/01/02 04:02:11;;;;;;;;;;;11.00;99.90;;;;;;5147604;27;20365;-56
2022/01/02 04:04:37;;;;;;;;;;;11.00;99.90;;;;;;5144989;27;19950;-57
2022/01/02 04:07:03;;;;;;;;;;;11.00;99.90;;;;;;5133110;27;19978;-57
2022/01/02 04:09:29;;;;;;;;;;;11.00;99.90;;;;;;5149112;27;20396;-57
2022/01/02 04:11:54;;;;;;;;;;;11.10;99.90;;;;;;5134569;27;19938;-55
2022/01/02 04:14:20;;;;;;;;;;;11.10;99.90;;;;;;5147289;27;19927;-57
2022/01/02 04:16:45;;;;;;;;;;;11.00;99.90;;;;;;5136126;27;19935;-56
2022/01/02 04:19:11;;;;;;;;;;;11.10;99.90;;;;;;5140926;27;19933;-59
2022/01/02 04:21:37;;;;;;;;;;;11.00;99.90;;;;;;5142263;27;19926;-59
2022/01/02 04:24:02;;;;;;;;;;;11.10;99.90;;;;;;5134088;27;19927;-57
2022/01/02 04:26:28;;;;;;;;;;;11.00;99.90;;;;;;5145658;27;19971;-57
2022/01/02 04:28:53;;;;;;;;;;;11.10;99.90;;;;;;5137964;27;20038;-56
2022/01/02 04:31:19;;;;;;;;;;;11.10;99.90;;;;;;5137935;27;20010;-56
2022/01/02 04:33:44;;;;;;;;;;;11.10;99.90;;;;;;5144687;27;19977;-56
2022/01/02 04:36:10;;;;;;;;;;;11.10;99.90;;;;;;5133956;27;20410;-57
2022/01/02 04:38:37;;;;;;;;;;;11.20;99.90;;;;;;5145946;27;19981;-56
2022/01/02 04:41:03;;;;;;;;;;;11.20;99.90;;;;;;5132025;27;19927;-56
2022/01/02 04:43:29;;;;;;;;;;;11.20;99.90;;;;;;5128155;27;19927;-57
2022/01/02 04:45:56;;;;;;;;;;;11.20;99.90;;;;;;5146506;27;19931;-55
2022/01/02 04:48:22;;;;;;;;;;;11.20;99.90;;;;;;5132980;27;20005;-56
2022/01/02 04:50:47;;;;;;;;;;;11.20;99.90;;;;;;5144032;27;20433;-56
2022/01/02 04:53:13;;;;;;;;;;;11.20;99.90;;;;;;5139941;27;20395;-56
2022/01/02 04:55:39;;;;;;;;;;;11.20;99.90;;;;;;5136293;27;19979;-56
2022/01/02 04:58:05;;;;;;;;;;;11.20;99.90;;;;;;5146638;27;20399;-56
2022/01/02 05:00:31;;;;;;;;;;;11.20;99.90;;;;;;5134294;27;20035;-57
2022/01/02 05:02:56;;;;;;;;;;;11.20;99.90;;;;;;5147017;27;19934;-55
2022/01/02 05:05:22;;;;;;;;;;;11.20;99.90;;;;;;5138866;27;19931;-56
2022/01/02 05:07:47;;;;;;;;;;;11.20;99.90;;;;;;5137961;27;19934;-56
2022/01/02 05:10:13;;;;;;;;;;;11.20;99.90;;;;;;5135238;27;19927;-58
2022/01/02 05:12:39;;;;;;;;;;;11.20;99.90;;;;;;5134574;27;19927;-56
2022/01/02 05:15:05;;;;;;;;;;;11.20;99.90;;;;;;5141203;27;19931;-57
2022/01/02 05:17:31;;;;;;;;;;;11.20;99.90;;;;;;5142106;27;19927;-59
2022/01/02 05:19:56;;;;;;;;;;;11.20;99.90;;;;;;5134070;27;20467;-57
2022/01/02 05:22:22;;;;;;;;;;;11.20;99.90;;;;;;5146130;27;19934;-56
2022/01/02 05:24:47;;;;;;;;;;;11.20;99.90;;;;;;5129234;27;20050;-56
2022/01/02 05:27:13;;;;;;;;;;;11.20;99.90;;;;;;5127383;27;19927;-56
2022/01/02 05:29:39;;;;;;;;;;;11.20;99.90;;;;;;5128386;27;19927;-56
2022/01/02 05:32:04;;;;;;;;;;;11.30;99.90;;;;;;5131905;27;19993;-57
2022/01/02 05:34:30;;;;;;;;;;;11.20;99.90;;;;;;5133523;27;20363;-60
2022/01/02 05:36:56;;;;;;;;;;;11.20;99.90;;;;;;5140791;27;20359;-58
2022/01/02 05:39:21;;;;;;;;;;;11.20;99.90;;;;;;5140754;27;20263;-59
2022/01/02 05:41:48;;;;;;;;;;;11.20;99.90;;;;;;5146446;27;19923;-59
2022/01/02 05:44:14;;;;;;;;;;;11.20;99.90;;;;;;5132385;27;19927;-59
2022/01/02 05:46:40;;;;;;;;;;;11.30;99.90;;;;;;5143998;27;19927;-59
2022/01/02 05:49:06;;;;;;;;;;;11.20;99.90;;;;;;5138225;27;19987;-60
2022/01/02 05:51:31;;;;;;;;;;;11.30;99.90;;;;;;5136867;27;20435;-60
2022/01/02 05:53:57;;;;;;;;;;;11.20;99.90;;;;;;5145252;27;19988;-58
2022/01/02 05:56:22;;;;;;;;;;;11.30;99.90;;;;;;5132223;27;20295;-56
2022/01/02 05:58:48;;;;;;;;;;;11.30;99.90;;;;;;5142709;27;20295;-58
2022/01/02 06:01:14;;;;;;;;;;;11.30;99.90;;;;;;5137745;27;20014;-59
2022/01/02 06:03:39;;;;;;;;;;;11.30;99.90;;;;;;5145330;27;19933;-56
2022/01/02 06:06:05;;;;;;;;;;;11.30;99.90;;;;;;5131756;27;19932;-59
2022/01/02 06:08:30;;;;;;;;;;;11.40;99.90;;;;;;5141747;27;19990;-57
2022/01/02 06:10:56;;;;;;;;;;;11.30;99.90;;;;;;5139792;27;20528;-58
2022/01/02 06:13:22;;;;;;;;;;;11.30;99.90;;;;;;5138940;27;19927;-59
2022/01/02 06:15:48;;;;;;;;;;;11.40;99.90;;;;;;5134170;27;20246;-59
2022/01/02 06:18:13;;;;;;;;;;;11.40;99.90;;;;;;5145823;27;19930;-56
2022/01/02 06:20:39;;;;;;;;;;;11.30;99.90;;;;;;5133798;27;19927;-56
2022/01/02 06:23:04;;;;;;;;;;;11.40;99.90;;;;;;5140201;27;19932;-56
2022/01/02 06:25:30;;;;;;;;;;;11.40;99.90;;;;;;5140926;27;19927;-59
2022/01/02 06:27:55;;;;;;;;;;;11.40;99.90;;;;;;5114016;28;20267;-57
2022/01/02 06:30:21;;;;;;;;;;;11.40;99.90;;;;;;5145207;27;19934;-59
2022/01/02 06:32:54;;;;;;;;;;;11.40;99.90;;;;;;5134244;27;19927;-56
2022/01/02 06:35:21;;;;;;;;;;;11.40;99.90;;;;;;5137475;27;20014;-60
2022/01/02 06:37:46;;;;;;;;;;;11.40;99.90;;;;;;5143536;27;19927;-56
2022/01/02 06:40:12;;;;;;;;;;;11.40;99.90;;;;;;5133440;27;19950;-60
2022/01/02 06:42:37;;;;;;;;;;;11.40;99.90;;;;;;5131055;27;19928;-59
2022/01/02 06:45:03;;;;;;;;;;;11.50;99.90;;;;;;5141501;27;19927;-62
2022/01/02 06:47:29;;;;;;;;;;;11.40;99.90;;;;;;5138850;27;19927;-63
2022/01/02 06:49:54;;;;;;;;;;;11.50;99.90;;;;;;5148828;27;20452;-60
2022/01/02 06:52:20;;;;;;;;;;;11.50;99.90;;;;;;5135655;27;19931;-57
2022/01/02 06:54:45;;;;;;;;;;;11.50;99.90;;;;;;5146272;27;20437;-60
2022/01/02 06:57:11;;;;;;;;;;;11.50;99.90;;;;;;5142406;27;19927;-56
2022/01/02 06:59:37;;;;;;;;;;;11.50;99.90;;;;;;5138708;27;19927;-57
2022/01/02 07:02:02;;;;;;;;;;;11.60;99.90;;;;;;5149103;27;20000;-60
2022/01/02 07:04:28;;;;;;;;;;;11.60;99.90;;;;;;5145454;27;19989;-56
2022/01/02 07:06:54;;;;;;;;;;;11.60;99.90;;;;;;5132498;27;19974;-56
2022/01/02 07:09:19;;;;;;;;;;;11.60;99.90;;;;;;5141231;27;19935;-55
2022/01/02 07:11:45;;;;;;;;;;;11.60;99.90;;;;;;5131640;27;20288;-56
2022/01/02 07:14:10;;;;;;;;;;;11.80;99.90;;;;;;5148773;27;19927;-59
2022/01/02 07:16:36;;;;;;;;;;;11.60;99.90;;;;;;5136743;27;19926;-58
2022/01/02 07:19:02;;;;;;;;;;;11.60;99.90;;;;;;5144136;27;20482;-59
2022/01/02 07:21:27;;;;;;;;;;;11.60;99.90;;;;;;5144311;27;19927;-57
2022/01/02 07:23:54;;;;;;;;;;;11.60;99.90;;;;;;5136211;27;19927;-56
2022/01/02 07:26:20;;;;;;;;;;;11.70;99.90;;;;;;5148169;27;19927;-55
2022/01/02 07:28:45;;;;;;;;;;;11.70;99.90;;;;;;5138207;27;19934;-56
2022/01/02 07:31:11;;;;;;;;;;;11.70;99.90;;;;;;5141663;27;19927;-56
2022/01/02 07:33:37;;;;;;;;;;;11.80;99.90;;;;;;5130051;27;19954;-57
2022/01/02 07:36:02;;;;;;;;;;;11.70;99.90;;;;;;5148287;27;20301;-56
2022/01/02 07:38:28;;;;;;;;;;;11.70;99.90;;;;;;5135033;27;20265;-58
2022/01/02 07:40:53;;;;;;;;;;;11.70;99.90;;;;;;5149441;27;19960;-56
2022/01/02 07:43:19;;;;;;;;;;;11.70;99.90;;;;;;5140333;27;20025;-57
2022/01/02 07:45:44;;;;;;;;;;;11.70;99.90;;;;;;5144881;27;20403;-57
2022/01/02 07:48:10;;;;;;;;;;;11.70;99.90;;;;;;5136594;27;19927;-56
2022/01/02 07:50:36;;;;;;;;;;;11.70;99.90;;;;;;5143351;27;19927;-55
2022/01/02 07:53:01;;;;;;;;;;;11.60;99.90;;;;;;5139431;27;19927;-56
2022/01/02 07:55:27;;;;;;;;;;;11.70;99.90;;;;;;5130797;27;19932;-56
2022/01/02 07:57:52;;;;;;;;;;;11.70;99.90;;;;;;5146599;27;19927;-56
2022/01/02 08:00:18;;;;;;;;;;;11.70;99.90;;;;;;5134269;27;19928;-56
2022/01/02 08:02:44;;;;;;;;;;;11.60;99.90;;;;;;5146713;27;20025;-57
2022/01/02 08:05:10;;;;;;;;;;;11.70;99.90;;;;;;5139878;27;20029;-57
2022/01/02 08:07:39;;;;;;;;;;;11.60;99.90;;;;;;5136362;27;20358;-56
2022/01/02 08:10:05;;;;;;;;;;;11.60;99.90;;;;;;5130693;27;19935;-56
2022/01/02 08:12:30;;;;;;;;;;;11.60;99.90;;;;;;5147147;27;19927;-56
2022/01/02 08:14:56;;;;;;;;;;;11.60;99.90;;;;;;5131379;27;20002;-57
2022/01/02 08:17:21;;;;;;;;;;;11.60;99.90;;;;;;5128247;27;19931;-56
2022/01/02 08:19:47;;;;;;;;;;;11.60;99.90;;;;;;5142589;27;19927;-56
2022/01/02 08:22:12;;;;;;;;;;;11.60;99.90;;;;;;5138779;27;19933;-57
2022/01/02 08:24:38;;;;;;;;;;;11.60;99.90;;;;;;5133697;27;19934;-56
2022/01/02 08:27:03;;;;;;;;;;;11.60;99.90;;;;;;5141667;27;19938;-60
2022/01/02 08:29:29;;;;;;;;;;;11.70;99.90;;;;;;5141086;27;20010;-56
2022/01/02 08:31:55;;;;;;;;;;;11.60;99.90;;;;;;5143893;27;19979;-56
2022/01/02 08:34:20;;;;;;;;;;;11.70;99.90;;;;;;5134119;27;19931;-56
2022/01/02 08:36:46;;;;;;;;;;;11.70;99.90;;;;;;5143509;27;19927;-56
2022/01/02 08:39:11;;;;;;;;;;;11.60;99.90;;;;;;5136378;27;20492;-56
2022/01/02 08:41:37;;;;;;;;;;;11.60;99.90;;;;;;5131340;27;19985;-56
2022/01/02 08:44:03;;;;;;;;;;;11.60;99.90;;;;;;5131351;27;19934;-56
2022/01/02 08:46:28;;;;;;;;;;;11.60;99.90;;;;;;5135191;27;20356;-56
2022/01/02 08:48:54;;;;;;;;;;;11.60;99.90;;;;;;5130261;27;20035;-57
2022/01/02 08:51:19;;;;;;;;;;;11.50;99.90;;;;;;5134358;27;19935;-56
2022/01/02 08:53:45;;;;;;;;;;;11.50;99.90;;;;;;5129862;27;19931;-55
2022/01/02 08:56:10;;;;;;;;;;;11.50;99.90;;;;;;5130482;27;19927;-56
2022/01/02 08:58:36;;;;;;;;;;;11.50;99.90;;;;;;5143361;27;20372;-56
2022/01/02 09:01:02;;;;;;;;;;;11.50;99.90;;;;;;5129845;27;20368;-57
2022/01/02 09:03:29;;;;;;;;;;;11.40;99.90;;;;;;5134925;27;19980;-56
2022/01/02 09:05:55;;;;;;;;;;;11.40;99.90;;;;;;5134681;27;20381;-58
2022/01/02 09:08:20;;;;;;;;;;;11.40;99.90;;;;;;5139573;27;20296;-56
2022/01/02 09:10:46;;;;;;;;;;;11.40;99.90;;;;;;5125319;27;19999;-57
2022/01/02 09:13:12;;;;;;;;;;;11.40;99.90;;;;;;5126404;27;19927;-56
2022/01/02 09:15:38;;;;;;;;;;;11.40;99.90;;;;;;5115552;27;20962;-59
2022/01/02 09:18:05;;;;;;;;;;;11.30;99.90;;;;;;5131080;27;19927;-58
2022/01/02 09:20:31;;;;;;;;;;;11.40;99.90;;;;;;5124338;27;20010;-59
2022/01/02 09:22:56;;;;;;;;;;;11.30;99.90;;;;;;5129146;27;20029;-56
2022/01/02 09:25:22;;;;;;;;;;;11.30;99.90;;;;;;5128139;27;19934;-56
2022/01/02 09:27:48;;;;;;;;;;;11.40;99.90;;;;;;5128203;27;20593;-55
2022/01/02 09:30:13;;;;;;;;;;;11.30;99.90;;;;;;5130052;27;19933;-57
2022/01/02 09:32:40;;;;;;;;;;;11.30;99.90;;;;;;5135154;27;19934;-56
2022/01/02 09:35:06;;;;;;;;;;;11.30;99.90;;;;;;5124110;27;20025;-57
2022/01/02 09:37:34;;;;;;;;;;;11.30;99.90;;;;;;5128938;27;20173;-58
2022/01/02 09:40:00;;;;;;;;;;;11.40;99.90;;;;;;5135490;27;19927;-56
2022/01/02 09:42:26;;;;;;;;;;;11.40;99.90;;;;;;5124168;27;19928;-60
2022/01/02 09:44:52;;;;;;;;;;;11.40;99.90;;;;;;5126121;27;20412;-57
2022/01/02 09:47:19;;;;;;;;;;;11.30;99.90;;;;;;5123381;27;19979;-57
2022/01/02 09:49:46;;;;;;;;;;;11.40;99.90;;;;;;5126997;27;19931;-59
2022/01/02 09:52:11;;;;;;;;;;;11.40;99.90;;;;;;5121062;27;19928;-56
2022/01/02 09:54:37;;;;;;;;;;;11.40;99.90;;;;;;5123849;27;19934;-59
2022/01/02 09:57:03;;;;;;;;;;;11.40;99.90;;;;;;5127471;27;20503;-58
2022/01/02 09:59:28;;;;;;;;;;;11.40;99.90;;;;;;5127416;27;19927;-58
2022/01/02 10:01:54;;;;;;;;;;;11.40;99.90;;;;;;5123395;27;19987;-56
2022/01/02 10:04:39;;;;;;;;;;;11.40;99.90;;;;;;5123103;27;19984;-59
2022/01/02 10:07:06;;;;;;;;;;;11.40;99.90;;;;;;5127674;27;19939;-57
2022/01/02 10:09:36;;;;;;;;;;;11.40;99.90;;;;;;5126753;27;19992;-59
2022/01/02 10:12:21;;;;;;;;;;;11.50;99.90;;;;;;5133926;27;19927;-58
2022/01/02 10:15:05;;;;;;;;;;;11.40;99.90;;;;;;5133088;27;19927;-58
2022/01/02 10:17:49;;;;;;;;;;;11.50;99.90;;;;;;5132838;27;19934;-57
2022/01/02 10:20:14;;;;;;;;;;;11.50;99.90;;;;;;5127859;27;20002;-59
2022/01/02 10:22:59;;;;;;;;;;;12.00;99.90;;;;;;5127922;27;20447;-59
2022/01/02 10:25:37;;;;;;;;;;;11.60;99.90;;;;;;5139966;27;20739;-60
2022/01/02 10:28:22;;;;;;;;;;;11.60;99.90;;;;;;5130190;27;19934;-58
2022/01/02 10:30:49;;;;;;;;;;;11.60;99.90;;;;;;5125739;27;19927;-57
2022/01/02 10:33:15;;;;;;;;;;;11.60;99.90;;;;;;5133284;27;20702;-56
2022/01/02 10:35:41;;;;;;;;;;;11.60;99.90;;;;;;5139594;27;20042;-59
2022/01/02 10:38:06;;;;;;;;;;;11.70;99.90;;;;;;5138281;27;19966;-59
2022/01/02 10:40:34;;;;;;;;;;;11.70;99.90;;;;;;5131611;27;20014;-59
2022/01/02 10:43:01;;;;;;;;;;;11.70;99.90;;;;;;5127013;27;20393;-56
2022/01/02 10:45:30;;;;;;;;;;;11.70;99.90;;;;;;5137645;27;19988;-58
2022/01/02 10:47:55;;;;;;;;;;;11.70;99.90;;;;;;5114536;27;20447;-55
2022/01/02 10:50:21;;;;;;;;;;;11.70;99.90;;;;;;5130767;27;20436;-57
2022/01/02 10:52:47;;;;;;;;;;;11.70;99.90;;;;;;5131810;27;20053;-56
2022/01/02 10:55:13;;;;;;;;;;;11.70;99.90;;;;;;5137321;27;19927;-57
2022/01/02 10:57:39;;;;;;;;;;;11.70;99.90;;;;;;5129319;27;19932;-57
2022/01/02 11:00:05;;;;;;;;;;;11.60;99.90;;;;;;5134806;27;19938;-57
2022/01/02 11:02:31;;;;;;;;;;;11.70;99.90;;;;;;5127938;27;19935;-58
2022/01/02 11:04:58;;;;;;;;;;;11.70;99.90;;;;;;5132430;27;19927;-58
2022/01/02 11:07:25;;;;;;;;;;;11.70;99.90;;;;;;5128731;27;19970;-57
2022/01/02 11:09:52;;;;;;;;;;;11.70;99.90;;;;;;5144137;27;19934;-57
2022/01/02 11:12:19;;;;;;;;;;;11.70;99.90;;;;;;5128614;27;19979;-60
2022/01/02 11:14:44;;;;;;;;;;;11.70;99.90;;;;;;5132478;27;19932;-57
2022/01/02 11:17:12;;;;;;;;;;;11.70;99.90;;;;;;5139076;27;20337;-63
2022/01/02 11:19:37;;;;;;;;;;;11.70;99.90;;;;;;5132772;27;19932;-62
2022/01/02 11:22:03;;;;;;;;;;;11.70;99.90;;;;;;5132581;27;19996;-63
2022/01/02 11:24:32;;;;;;;;;;;11.70;99.90;;;;;;5129094;27;19972;-64
2022/01/02 11:27:14;;;;;;;;;;;11.70;99.90;;;;;;5127060;27;20013;-66
2022/01/02 11:29:39;;;;;;;;;;;11.80;99.90;;;;;;5127562;27;19973;-62
2022/01/02 11:32:25;;;;;;;;;;;11.90;99.90;;;;;;5125778;27;20046;-61
2022/01/02 11:34:51;;;;;;;;;;;12.00;99.90;;;;;;5127291;27;19928;-60
2022/01/02 11:37:23;;;;;;;;;;;12.00;99.90;;;;;;5124967;27;20470;-57
2022/01/02 11:40:03;;;;;;;;;;;12.00;99.90;;;;;;5125548;27;20424;-62
2022/01/02 11:42:35;;;;;;;;;;;11.90;99.90;;;;;;5124813;27;19932;-58
2022/01/02 11:45:01;;;;;;;;;;;11.90;99.90;;;;;;5124162;27;19928;-57
2022/01/02 11:47:47;;;;;;;;;;;11.90;99.90;;;;;;5133192;27;19927;-56
2022/01/02 11:50:32;;;;;;;;;;;11.80;99.90;;;;;;5123345;27;19970;-59
2022/01/02 11:53:13;;;;;;;;;;;11.90;99.90;;;;;;5123718;27;19927;-66
2022/01/02 11:55:40;;;;;;;;;;;11.80;99.90;;;;;;5124012;27;19927;-61
2022/01/02 11:58:05;;;;;;;;;;;11.80;99.90;;;;;;5125535;27;20472;-63
2022/01/02 12:00:32;;;;;;;;;;;11.80;99.90;;;;;;5129720;27;19995;-57
2022/01/02 12:02:57;;;;;;;;;;;11.90;99.90;;;;;;5124427;27;19927;-57
2022/01/02 12:05:23;;;;;;;;;;;10.70;99.90;;;;;;5125844;27;19996;-62
2022/01/02 12:07:53;;;;;;;;;;;11.90;99.90;;;;;;5124917;27;19928;-62
2022/01/02 12:10:23;;;;;;;;;;;11.90;99.90;;;;;;5124888;27;20372;-56
2022/01/02 12:13:13;;;;;;;;;;;11.90;99.90;;;;;;5128355;27;19934;-61
2022/01/02 12:15:38;;;;;;;;;;;11.90;99.90;;;;;;5126081;27;19995;-62
2022/01/02 12:18:11;;;;;;;;;;;11.90;99.90;;;;;;5139348;27;20355;-59
2022/01/02 12:20:52;;;;;;;;;;;11.80;99.90;;;;;;5132967;27;19927;-60
2022/01/02 12:23:33;;;;;;;;;;;11.80;99.90;;;;;;5126568;27;20246;-62
2022/01/02 12:26:02;;;;;;;;;;;11.70;99.90;;;;;;5140974;27;19933;-57
2022/01/02 12:28:29;;;;;;;;;;;11.70;99.90;;;;;;5130742;27;19927;-63
2022/01/02 12:30:56;;;;;;;;;;;11.80;99.90;;;;;;5136030;27;19975;-58
2022/01/02 12:33:23;;;;;;;;;;;11.70;99.90;;;;;;5134482;27;20094;-58
2022/01/02 12:35:48;;;;;;;;;;;11.70;99.90;;;;;;5131064;27;19927;-59
2022/01/02 12:38:14;;;;;;;;;;;11.70;99.90;;;;;;5130957;27;19927;-58
2022/01/02 12:40:39;;;;;;;;;;;11.80;99.90;;;;;;5127784;27;19933;-57
2022/01/02 12:43:05;;;;;;;;;;;11.80;99.90;;;;;;5129273;27;19932;-59
2022/01/02 12:45:31;;;;;;;;;;;11.70;99.90;;;;;;5129237;27;19927;-56
2022/01/02 12:47:57;;;;;;;;;;;11.80;99.90;;;;;;5138070;27;19932;-56
2022/01/02 12:50:33;;;;;;;;;;;11.70;99.90;;;;;;5126872;27;19934;-60
2022/01/02 12:52:59;;;;;;;;;;;11.70;99.90;;;;;;5127905;27;19971;-57
2022/01/02 12:55:25;;;;;;;;;;;11.60;99.90;;;;;;5136429;27;20588;-58
2022/01/02 12:58:00;;;;;;;;;;;11.70;99.90;;;;;;5140146;27;19934;-56
2022/01/02 13:00:26;;;;;;;;;;;11.60;99.90;;;;;;5125138;27;19985;-57
2022/01/02 13:02:53;;;;;;;;;;;11.60;99.90;;;;;;5129015;27;19927;-56
2022/01/02 13:05:18;;;;;;;;;;;11.70;99.90;;;;;;5126732;27;19931;-56
2022/01/02 13:07:46;;;;;;;;;;;11.60;99.90;;;;;;5131089;27;20300;-56
2022/01/02 13:10:13;;;;;;;;;;;11.60;99.90;;;;;;5127367;27;19923;-56
2022/01/02 13:12:39;;;;;;;;;;;11.70;99.90;;;;;;5124570;27;20443;-57
2022/01/02 13:15:12;;;;;;;;;;;11.70;99.90;;;;;;5107802;27;19931;-58
2022/01/02 13:17:39;;;;;;;;;;;11.60;99.90;;;;;;5125351;27;19982;-60
2022/01/02 13:20:23;;;;;;;;;;;11.60;99.90;;;;;;5138174;27;19982;-62
2022/01/02 13:22:50;;;;;;;;;;;11.10;99.90;;;;;;5134828;27;19938;-62
2022/01/02 13:25:23;;;;;;;;;;;11.50;99.90;;;;;;5131994;27;19928;-60
2022/01/02 13:27:54;;;;;;;;;;;11.50;99.90;;;;;;5132084;27;20925;-64
2022/01/02 13:30:24;;;;;;;;;;;11.50;99.90;;;;;;5126755;27;19931;-60
2022/01/02 13:32:50;;;;;;;;;;;11.50;99.90;;;;;;5138674;27;20010;-60
2022/01/02 13:35:20;;;;;;;;;;;11.40;99.90;;;;;;5122050;27;19927;-59
2022/01/02 13:37:51;;;;;;;;;;;11.40;99.90;;;;;;5124447;27;20014;-68
2022/01/02 13:40:16;;;;;;;;;;;11.40;99.90;;;;;;5126748;27;19927;-55
2022/01/02 13:42:43;;;;;;;;;;;11.50;99.90;;;;;;5123951;27;19934;-59
2022/01/02 13:45:14;;;;;;;;;;;11.50;99.90;;;;;;5132770;27;19927;-60
2022/01/02 13:47:41;;;;;;;;;;;11.40;99.90;;;;;;5130434;27;19927;-59
2022/01/02 13:50:07;;;;;;;;;;;11.40;99.90;;;;;;5122295;27;19927;-57
2022/01/02 13:52:51;;;;;;;;;;;11.30;99.90;;;;;;5123624;27;19931;-56
2022/01/02 13:55:16;;;;;;;;;;;11.30;99.90;;;;;;5125180;27;19934;-57
2022/01/02 13:57:42;;;;;;;;;;;11.30;99.90;;;;;;5128994;27;19927;-56
2022/01/02 14:00:15;;;;;;;;;;;11.20;99.90;;;;;;5128382;27;20057;-57
2022/01/02 14:02:40;;;;;;;;;;;11.20;99.90;;;;;;5136733;27;20440;-59
2022/01/02 14:05:06;;;;;;;;;;;11.10;99.90;;;;;;5128373;27;19934;-60
2022/01/02 14:07:34;;;;;;;;;;;11.20;99.90;;;;;;5133888;27;19927;-59
2022/01/02 14:10:03;;;;;;;;;;;11.20;99.90;;;;;;5140670;27;20357;-57
2022/01/02 14:12:32;;;;;;;;;;;11.10;99.90;;;;;;5126179;27;20381;-56
2022/01/02 14:15:08;;;;;;;;;;;11.10;99.90;;;;;;5127672;27;19934;-58
2022/01/02 14:17:42;;;;;;;;;;;11.10;99.90;;;;;;5124499;27;19931;-59
2022/01/02 14:20:08;;;;;;;;;;;11.00;99.90;;;;;;5134134;27;20004;-57
2022/01/02 14:22:35;;;;;;;;;;;11.80;99.90;;;;;;5128588;27;20018;-57
2022/01/02 14:25:02;;;;;;;;;;;11.00;99.90;;;;;;5132929;27;19927;-56